createdAt,value
2019-05-09T00:02:24.175Z,12.37
2019-05-09T00:04:49.857Z,11.93
2019-05-09T00:07:16.249Z,10.53
2019-05-09T00:09:44.129Z,12.20
2019-05-09T00:12:10.664Z,13.00
2019-05-09T00:14:37.056Z,12.73
2019-05-09T00:17:03.843Z,19.30
2019-05-09T00:19:30.221Z,12.50
2019-05-09T00:21:56.640Z,12.83
2019-05-09T00:24:23.852Z,12.03
2019-05-09T00:26:50.365Z,13.50
2019-05-09T00:29:30.493Z,14.10
2019-05-09T00:31:58.802Z,11.27
2019-05-09T00:34:27.013Z,12.10
2019-05-09T00:36:53.968Z,11.87
2019-05-09T00:39:23.622Z,16.20
2019-05-09T00:41:49.811Z,14.77
2019-05-09T00:44:24.135Z,11.93
2019-05-09T00:46:53.535Z,16.30
2019-05-09T00:49:23.547Z,9.23
2019-05-09T00:51:50.211Z,13.93
2019-05-09T00:54:16.586Z,13.80
2019-05-09T00:56:43.638Z,11.07
2019-05-09T00:59:10.083Z,14.40
2019-05-09T01:01:36.461Z,13.93
2019-05-09T01:04:04.332Z,13.87
2019-05-09T01:06:31.042Z,14.73
2019-05-09T01:08:57.381Z,12.50
2019-05-09T01:11:24.499Z,12.53
2019-05-09T01:13:50.999Z,11.93
2019-05-09T01:16:17.415Z,11.40
2019-05-09T01:18:43.892Z,7.83
2019-05-09T01:21:10.251Z,14.17
2019-05-09T01:23:36.713Z,9.40
2019-05-09T01:26:03.893Z,16.73
2019-05-09T01:28:30.614Z,10.03
2019-05-09T01:30:57.049Z,12.53
2019-05-09T01:33:40.349Z,11.27
2019-05-09T01:36:06.701Z,15.67
2019-05-09T01:38:33.902Z,9.40
2019-05-09T01:41:00.517Z,9.47
2019-05-09T01:43:26.860Z,10.90
2019-05-09T01:45:54.098Z,16.10
2019-05-09T01:48:20.526Z,8.17
2019-05-09T01:50:46.961Z,10.87
2019-05-09T01:53:15.188Z,12.93
2019-05-09T01:55:57.280Z,14.73
2019-05-09T01:58:23.683Z,12.13
2019-05-09T02:00:50.094Z,12.43
2019-05-09T02:03:16.524Z,9.63
2019-05-09T02:05:43.468Z,13.53
2019-05-09T02:08:11.054Z,11.37
2019-05-09T02:10:37.458Z,10.93
2019-05-09T02:13:04.401Z,16.63
2019-05-09T02:15:35.182Z,13.50
2019-05-09T02:18:13.706Z,14.07
2019-05-09T02:20:40.217Z,12.00
2019-05-09T02:23:06.596Z,9.13
2019-05-09T02:25:33.593Z,13.67
2019-05-09T02:28:00.874Z,10.43
2019-05-09T02:30:27.240Z,14.13
2019-05-09T02:32:54.753Z,13.60
2019-05-09T02:35:21.373Z,15.87
2019-05-09T02:37:49.883Z,15.87
2019-05-09T02:40:18.746Z,12.57
2019-05-09T02:42:44.191Z,14.60
2019-05-09T02:45:11.049Z,15.03
2019-05-09T02:47:38.474Z,17.83
2019-05-09T02:50:09.002Z,10.77
2019-05-09T02:52:34.727Z,11.47
2019-05-09T02:55:01.089Z,14.03
2019-05-09T02:57:29.418Z,12.90
2019-05-09T03:00:14.613Z,11.23
2019-05-09T03:02:48.466Z,17.07
2019-05-09T03:05:13.561Z,14.20
2019-05-09T03:07:49.032Z,10.70
2019-05-09T03:10:19.116Z,10.90
2019-05-09T03:12:44.504Z,14.40
2019-05-09T03:15:11.143Z,16.17
2019-05-09T03:17:38.606Z,10.77
2019-05-09T03:20:09.459Z,13.30
2019-05-09T03:22:35.174Z,17.03
2019-05-09T03:25:03.497Z,13.80
2019-05-09T03:27:31.746Z,10.13
2019-05-09T03:30:00.012Z,11.70
2019-05-09T03:32:29.691Z,11.20
2019-05-09T03:34:55.127Z,12.17
2019-05-09T03:37:21.491Z,11.17
2019-05-09T03:39:47.982Z,11.30
2019-05-09T03:42:14.339Z,10.47
2019-05-09T03:44:40.765Z,14.53
2019-05-09T03:47:09.207Z,11.37
2019-05-09T03:49:37.607Z,13.23
2019-05-09T03:52:03.892Z,11.30
2019-05-09T03:54:30.299Z,9.60
2019-05-09T03:56:58.640Z,11.60
2019-05-09T03:59:24.986Z,18.63
2019-05-09T04:01:51.418Z,15.97
2019-05-09T04:04:19.587Z,10.37
2019-05-09T04:06:47.966Z,10.17
2019-05-09T04:09:14.153Z,15.67
2019-05-09T04:11:40.508Z,16.77
2019-05-09T04:14:11.595Z,11.47
2019-05-09T04:16:38.173Z,11.67
2019-05-09T04:19:04.587Z,14.03
2019-05-09T04:21:30.972Z,12.03
2019-05-09T04:23:58.465Z,12.17
2019-05-09T04:26:29.811Z,10.87
2019-05-09T04:28:57.792Z,9.93
2019-05-09T04:31:24.378Z,10.53
2019-05-09T04:33:50.746Z,15.73
2019-05-09T04:36:20.101Z,9.50
2019-05-09T04:38:47.214Z,12.83
2019-05-09T04:41:16.405Z,17.10
2019-05-09T04:43:43.306Z,12.60
2019-05-09T04:46:12.858Z,41.27
2019-05-09T04:48:37.887Z,12.53
2019-05-09T04:51:07.630Z,10.30
2019-05-09T04:53:33.843Z,11.43
2019-05-09T04:56:02.749Z,11.47
2019-05-09T04:58:29.126Z,11.53
2019-05-09T05:01:14.107Z,12.00
2019-05-09T05:03:41.729Z,18.33
2019-05-09T05:06:08.126Z,17.20
2019-05-09T05:08:34.464Z,12.77
2019-05-09T05:11:00.953Z,13.67
2019-05-09T05:13:29.580Z,12.87
2019-05-09T05:15:57.620Z,12.20
2019-05-09T05:18:23.777Z,10.77
2019-05-09T05:20:50.083Z,9.90
2019-05-09T05:23:34.864Z,8.90
2019-05-09T05:26:01.248Z,11.27
2019-05-09T05:28:27.896Z,10.07
2019-05-09T05:30:54.398Z,8.23
2019-05-09T05:33:31.321Z,25.80
2019-05-09T05:35:59.618Z,15.03
2019-05-09T05:38:27.547Z,18.20
2019-05-09T05:40:54.166Z,13.27
2019-05-09T05:43:20.536Z,19.30
2019-05-09T05:45:48.891Z,10.97
2019-05-09T05:48:23.002Z,10.53
2019-05-09T05:50:49.387Z,13.10
2019-05-09T05:53:15.798Z,13.20
2019-05-09T05:55:42.324Z,8.37
2019-05-09T05:58:08.862Z,9.80
2019-05-09T06:00:37.633Z,8.50
2019-05-09T06:03:03.751Z,11.30
2019-05-09T06:05:30.116Z,10.33
2019-05-09T06:07:57.771Z,14.70
2019-05-09T06:10:24.238Z,10.50
2019-05-09T06:12:50.670Z,12.60
2019-05-09T06:15:18.252Z,9.60
2019-05-09T06:17:44.900Z,12.93
2019-05-09T06:20:11.691Z,14.80
2019-05-09T06:22:38.301Z,14.90
2019-05-09T06:25:04.810Z,11.23
2019-05-09T06:27:31.175Z,13.93
2019-05-09T06:29:58.148Z,10.97
2019-05-09T06:32:24.672Z,12.93
2019-05-09T06:34:51.060Z,11.57
2019-05-09T06:37:18.394Z,16.60
2019-05-09T06:39:45.056Z,14.07
2019-05-09T06:42:11.450Z,10.13
2019-05-09T06:44:39.732Z,11.03
2019-05-09T06:47:08.419Z,16.20
2019-05-09T06:49:39.999Z,13.43
2019-05-09T06:52:08.543Z,10.23
2019-05-09T06:54:34.658Z,16.63
2019-05-09T06:57:01.064Z,13.33
2019-05-09T06:59:28.279Z,10.97
2019-05-09T07:01:59.506Z,10.53
2019-05-09T07:04:31.196Z,27.03
2019-05-09T07:07:11.715Z,11.23
2019-05-09T07:09:42.996Z,8.20
2019-05-09T07:12:09.372Z,9.80
2019-05-09T07:14:41.332Z,20.67
2019-05-09T07:17:04.602Z,10.87
2019-05-09T07:19:30.993Z,13.50
2019-05-09T07:22:02.304Z,18.50
2019-05-09T07:24:29.073Z,9.93
2019-05-09T07:26:55.471Z,10.57
2019-05-09T07:29:21.854Z,76.30
2019-05-09T07:31:53.843Z,8.17
2019-05-09T07:34:27.845Z,8.57
2019-05-09T07:36:54.324Z,11.40
2019-05-09T07:39:20.691Z,13.13
2019-05-09T07:41:47.784Z,9.57
2019-05-09T07:44:18.045Z,12.67
2019-05-09T07:46:47.466Z,11.27
2019-05-09T07:49:14.162Z,12.17
2019-05-09T07:51:40.554Z,9.33
2019-05-09T07:54:21.132Z,13.23
2019-05-09T07:56:37.640Z,13.50
2019-05-09T07:59:03.319Z,11.90
2019-05-09T08:01:29.671Z,11.03
2019-05-09T08:03:58.298Z,14.30
2019-05-09T08:06:24.188Z,15.77
2019-05-09T08:08:50.672Z,15.73
2019-05-09T08:11:18.227Z,19.97
2019-05-09T08:13:44.618Z,10.57
2019-05-09T08:16:14.606Z,16.27
2019-05-09T08:18:39.238Z,12.47
2019-05-09T08:21:05.621Z,122.23
2019-05-09T08:23:31.999Z,13.63
2019-05-09T08:25:58.558Z,10.17
2019-05-09T08:28:25.061Z,11.57
2019-05-09T08:30:51.445Z,17.97
2019-05-09T08:33:18.380Z,14.33
2019-05-09T08:35:49.858Z,13.27
2019-05-09T08:38:13.311Z,24.73
2019-05-09T08:40:39.640Z,17.37
2019-05-09T08:43:07.564Z,17.57
2019-05-09T08:45:34.234Z,12.90
2019-05-09T08:48:00.605Z,17.90
2019-05-09T08:50:28.896Z,14.90
2019-05-09T08:52:57.454Z,19.47
2019-05-09T08:55:23.465Z,21.03
2019-05-09T08:57:49.826Z,18.40
2019-05-09T09:00:18.691Z,15.37
2019-05-09T09:02:44.710Z,19.87
2019-05-09T09:05:13.999Z,17.10
2019-05-09T09:07:39.804Z,19.73
2019-05-09T09:10:08.446Z,14.27
2019-05-09T09:12:35.306Z,14.70
2019-05-09T09:15:01.760Z,18.67
2019-05-09T09:17:28.278Z,16.77
2019-05-09T09:19:54.867Z,18.07
2019-05-09T09:22:21.248Z,21.90
2019-05-09T09:24:48.276Z,16.93
2019-05-09T09:27:14.885Z,16.40
2019-05-09T09:29:41.245Z,18.53
2019-05-09T09:32:08.379Z,19.80
2019-05-09T09:34:37.557Z,17.07
2019-05-09T09:37:06.424Z,12.60
2019-05-09T09:39:31.485Z,15.10
2019-05-09T09:41:58.703Z,17.83
2019-05-09T09:44:25.155Z,18.60
2019-05-09T09:46:51.531Z,19.03
2019-05-09T09:49:18.113Z,20.43
2019-05-09T09:51:44.550Z,17.37
2019-05-09T09:54:11.132Z,22.37
2019-05-09T09:56:38.633Z,17.70
2019-05-09T09:59:16.037Z,19.33
2019-05-09T10:01:44.324Z,15.53
2019-05-09T10:04:19.456Z,19.50
2019-05-09T10:06:40.978Z,14.87
2019-05-09T10:09:09.391Z,13.23
2019-05-09T10:11:36.901Z,18.23
2019-05-09T10:14:03.626Z,19.47
2019-05-09T10:16:34.518Z,14.10
2019-05-09T10:19:08.624Z,16.07
2019-05-09T10:21:40.143Z,19.60
2019-05-09T10:24:07.960Z,17.43
2019-05-09T10:26:38.887Z,14.70
2019-05-09T10:29:04.663Z,15.50
2019-05-09T10:31:31.203Z,20.77
2019-05-09T10:33:58.669Z,18.13
2019-05-09T10:36:25.057Z,17.73
2019-05-09T10:38:51.472Z,15.97
2019-05-09T10:41:17.928Z,14.73
2019-05-09T10:43:52.162Z,16.63
2019-05-09T10:46:51.536Z,18.83
2019-05-09T10:49:08.326Z,14.90
2019-05-09T10:51:35.060Z,15.37
2019-05-09T10:54:01.591Z,14.97
2019-05-09T10:56:28.219Z,15.30
2019-05-09T10:58:54.877Z,15.73
2019-05-09T11:01:21.245Z,17.47
2019-05-09T11:03:48.371Z,14.80
2019-05-09T11:06:17.895Z,14.73
2019-05-09T11:08:43.220Z,15.53
2019-05-09T11:11:09.628Z,14.93
2019-05-09T11:13:35.994Z,14.73
2019-05-09T11:16:02.458Z,14.17
2019-05-09T11:18:28.835Z,15.63
2019-05-09T11:20:57.951Z,15.83
2019-05-09T11:23:23.426Z,15.53
2019-05-09T11:25:49.805Z,12.87
2019-05-09T11:28:17.978Z,16.10
2019-05-09T11:30:44.383Z,13.30
2019-05-09T11:33:10.816Z,12.70
2019-05-09T11:35:37.983Z,19.57
2019-05-09T11:38:04.626Z,12.23
2019-05-09T11:40:31.037Z,14.77
2019-05-09T11:42:57.519Z,14.10
2019-05-09T11:45:23.878Z,15.37
2019-05-09T11:47:50.308Z,15.23
2019-05-09T11:50:22.126Z,11.97
2019-05-09T11:52:45.077Z,11.00
2019-05-09T11:55:28.453Z,12.47
2019-05-09T11:57:39.764Z,15.23
2019-05-09T12:00:08.320Z,13.13
2019-05-09T12:02:35.041Z,13.57
2019-05-09T12:05:01.412Z,15.07
2019-05-09T12:07:28.782Z,10.33
2019-05-09T12:09:55.377Z,11.83
2019-05-09T12:12:21.765Z,12.90
2019-05-09T12:14:48.468Z,13.27
2019-05-09T12:17:14.863Z,12.97
2019-05-09T12:19:41.231Z,14.13
2019-05-09T12:22:08.970Z,12.97
2019-05-09T12:24:35.516Z,13.93
2019-05-09T12:27:02.946Z,11.90
2019-05-09T12:29:29.663Z,11.70
2019-05-09T12:31:56.035Z,12.97
2019-05-09T12:34:22.446Z,15.03
2019-05-09T12:36:49.693Z,13.63
2019-05-09T12:39:18.873Z,15.83
2019-05-09T12:41:44.509Z,16.37
2019-05-09T12:44:10.872Z,11.73
2019-05-09T12:46:39.438Z,14.03
2019-05-09T12:49:05.454Z,12.30
2019-05-09T12:51:31.855Z,13.73
2019-05-09T12:53:58.279Z,13.87
2019-05-09T12:56:24.626Z,13.60
2019-05-09T12:58:51.126Z,12.43
2019-05-09T13:01:18.742Z,14.27
2019-05-09T13:03:45.609Z,15.50
2019-05-09T13:06:12.639Z,14.27
2019-05-09T13:08:38.975Z,15.53
2019-05-09T13:11:07.817Z,14.27
2019-05-09T13:13:33.560Z,11.90
2019-05-09T13:16:12.022Z,13.77
2019-05-09T13:18:59.221Z,17.03
2019-05-09T13:21:27.859Z,19.40
2019-05-09T13:23:52.740Z,13.97
2019-05-09T13:26:19.181Z,26.80
2019-05-09T13:28:45.579Z,13.93
2019-05-09T13:31:11.969Z,16.77
2019-05-09T13:33:41.291Z,17.33
2019-05-09T13:36:09.126Z,13.93
2019-05-09T13:38:39.103Z,16.03
2019-05-09T13:41:04.527Z,16.97
2019-05-09T13:43:31.043Z,18.37
2019-05-09T13:45:58.815Z,20.90
2019-05-09T13:48:39.807Z,22.03
2019-05-09T13:50:54.153Z,21.73
2019-05-09T13:53:20.604Z,24.50
2019-05-09T13:55:48.024Z,18.93
2019-05-09T13:58:14.753Z,18.57
2019-05-09T14:00:55.825Z,17.37
2019-05-09T14:03:10.117Z,22.03
2019-05-09T14:05:36.857Z,18.20
2019-05-09T14:08:04.365Z,17.87
2019-05-09T14:10:31.187Z,18.53
2019-05-09T14:13:09.003Z,25.77
2019-05-09T14:15:27.475Z,20.97
2019-05-09T14:17:54.227Z,20.07
2019-05-09T14:20:20.711Z,20.53
2019-05-09T14:22:49.004Z,21.50
2019-05-09T14:25:15.467Z,23.87
2019-05-09T14:27:41.917Z,25.03
2019-05-09T14:30:09.076Z,114.77
2019-05-09T14:32:36.044Z,67.13
2019-05-09T14:35:04.592Z,340.97
2019-05-09T14:37:31.072Z,332.23
2019-05-09T14:39:59.549Z,82.50
2019-05-09T14:42:28.913Z,32.57
2019-05-09T14:44:54.940Z,108.17
2019-05-09T14:47:22.319Z,47.93
2019-05-09T14:49:50.545Z,24.27
2019-05-09T14:52:17.626Z,29.73
2019-05-09T14:54:44.264Z,43.83
2019-05-09T14:57:11.098Z,27.60
2019-05-09T14:59:38.363Z,26.60
2019-05-09T15:02:04.969Z,38.40
2019-05-09T15:04:31.427Z,27.80
2019-05-09T15:06:57.987Z,28.30
2019-05-09T15:09:24.536Z,36.50
2019-05-09T15:11:50.883Z,30.33
2019-05-09T15:14:18.157Z,36.07
2019-05-09T15:16:44.681Z,29.17
2019-05-09T15:19:11.137Z,26.77
2019-05-09T15:21:38.273Z,27.20
2019-05-09T15:24:04.983Z,30.07
2019-05-09T15:26:31.584Z,28.57
2019-05-09T15:28:58.446Z,26.50
2019-05-09T15:31:25.208Z,27.57
2019-05-09T15:33:51.887Z,30.53
2019-05-09T15:36:19.277Z,22.30
2019-05-09T15:38:48.432Z,24.90
2019-05-09T15:41:14.433Z,26.43
2019-05-09T15:43:41.008Z,50.80
2019-05-09T15:46:11.923Z,64.30
2019-05-09T15:48:38.353Z,35.53
2019-05-09T15:51:07.539Z,25.80
2019-05-09T15:53:34.036Z,27.50
2019-05-09T15:56:00.396Z,25.30
2019-05-09T15:58:28.723Z,29.47
2019-05-09T16:00:55.248Z,31.40
2019-05-09T16:03:21.665Z,26.60
2019-05-09T16:05:48.102Z,27.20
2019-05-09T16:08:14.463Z,32.17
2019-05-09T16:10:40.881Z,29.97
2019-05-09T16:13:08.169Z,28.10
2019-05-09T16:15:38.079Z,29.77
2019-05-09T16:18:04.008Z,23.63
2019-05-09T16:20:37.723Z,26.17
2019-05-09T16:22:58.744Z,29.20
2019-05-09T16:25:25.179Z,30.37
2019-05-09T16:27:51.663Z,23.63
2019-05-09T16:30:18.300Z,30.47
2019-05-09T16:32:44.721Z,28.37
2019-05-09T16:35:11.206Z,26.97
2019-05-09T16:37:56.803Z,28.43
2019-05-09T16:40:08.253Z,24.27
2019-05-09T16:42:34.140Z,29.30
2019-05-09T16:45:00.496Z,30.80
2019-05-09T16:47:28.426Z,27.23
2019-05-09T16:49:54.881Z,32.33
2019-05-09T16:52:21.255Z,21.70
2019-05-09T16:54:50.105Z,29.93
2019-05-09T16:57:18.255Z,27.43
2019-05-09T16:59:44.683Z,22.53
2019-05-09T17:02:21.775Z,24.53
2019-05-09T17:04:39.261Z,26.47
2019-05-09T17:07:05.767Z,30.40
2019-05-09T17:09:37.717Z,26.63
2019-05-09T17:12:04.246Z,32.27
2019-05-09T17:14:31.693Z,30.63
2019-05-09T17:16:59.987Z,29.63
2019-05-09T17:19:28.283Z,35.17
2019-05-09T17:22:12.643Z,30.27
2019-05-09T17:24:39.794Z,35.80
2019-05-09T17:27:08.725Z,34.00
2019-05-09T17:29:38.111Z,26.67
2019-05-09T17:32:03.629Z,30.10
2019-05-09T17:34:30.044Z,29.97
2019-05-09T17:36:56.515Z,37.03
2019-05-09T17:39:22.945Z,40.53
2019-05-09T17:41:49.423Z,33.13
2019-05-09T17:44:18.414Z,32.07
2019-05-09T17:46:44.160Z,33.47
2019-05-09T17:49:10.655Z,38.87
2019-05-09T17:51:37.127Z,39.77
2019-05-09T17:54:03.574Z,32.53
2019-05-09T17:56:31.121Z,34.90
2019-05-09T17:58:57.864Z,36.40
2019-05-09T18:01:27.573Z,37.97
2019-05-09T18:03:53.777Z,42.37
2019-05-09T18:06:20.977Z,42.33
2019-05-09T18:08:48.637Z,44.57
2019-05-09T18:11:17.281Z,44.93
2019-05-09T18:13:43.249Z,38.03
2019-05-09T18:16:09.740Z,39.80
2019-05-09T18:18:38.928Z,36.60
2019-05-09T18:21:05.496Z,41.77
2019-05-09T18:23:31.998Z,41.80
2019-05-09T18:25:58.776Z,41.27
2019-05-09T18:28:25.127Z,39.33
2019-05-09T18:30:52.536Z,41.03
2019-05-09T18:33:23.842Z,43.57
2019-05-09T18:35:50.394Z,66.77
2019-05-09T18:38:23.550Z,56.33
2019-05-09T18:40:50.031Z,42.33
2019-05-09T18:43:17.889Z,48.77
2019-05-09T18:45:44.549Z,43.87
2019-05-09T18:48:11.018Z,43.23
2019-05-09T18:50:37.476Z,63.57
2019-05-09T18:53:03.865Z,71.00
2019-05-09T18:55:30.431Z,50.20
2019-05-09T18:57:56.779Z,52.40
2019-05-09T19:00:23.540Z,53.20
2019-05-09T19:02:50.031Z,58.87
2019-05-09T19:05:17.842Z,49.93
2019-05-09T19:07:44.354Z,53.20
2019-05-09T19:10:11.536Z,52.43
2019-05-09T19:12:39.020Z,74.67
2019-05-09T19:15:08.329Z,70.57
2019-05-09T19:17:53.053Z,66.00
2019-05-09T19:20:21.386Z,41.30
2019-05-09T19:22:47.789Z,37.90
2019-05-09T19:25:14.226Z,38.03
2019-05-09T19:27:40.563Z,38.43
2019-05-09T19:30:07.680Z,53.77
2019-05-09T19:32:35.177Z,82.43
2019-05-09T19:35:02.049Z,68.83
2019-05-09T19:37:29.529Z,42.30
2019-05-09T19:39:56.017Z,74.90
2019-05-09T19:42:22.388Z,42.17
2019-05-09T19:44:48.830Z,40.20
2019-05-09T19:47:15.304Z,38.93
2019-05-09T19:49:41.740Z,43.07
2019-05-09T19:52:08.139Z,38.07
2019-05-09T19:54:34.560Z,41.27
2019-05-09T19:57:00.976Z,40.03
2019-05-09T19:59:27.429Z,41.70
2019-05-09T20:01:53.878Z,37.93
2019-05-09T20:04:20.272Z,40.47
2019-05-09T20:06:46.608Z,38.53
2019-05-09T20:09:15.102Z,41.37
2019-05-09T20:11:43.548Z,43.07
2019-05-09T20:14:21.172Z,42.87
2019-05-09T20:16:55.206Z,39.03
2019-05-09T20:19:20.428Z,40.93
2019-05-09T20:21:46.854Z,40.70
2019-05-09T20:24:13.250Z,42.63
2019-05-09T20:26:39.652Z,37.40
2019-05-09T20:29:06.078Z,39.10
2019-05-09T20:31:32.547Z,37.23
2019-05-09T20:33:58.932Z,40.27
2019-05-09T20:36:25.383Z,38.57
2019-05-09T20:38:51.811Z,43.43
2019-05-09T20:41:18.216Z,40.80
2019-05-09T20:43:44.603Z,41.77
2019-05-09T20:46:11.077Z,37.27
2019-05-09T20:48:37.516Z,40.40
2019-05-09T20:51:03.939Z,45.20
2019-05-09T20:53:30.324Z,49.67
2019-05-09T20:55:56.734Z,44.80
2019-05-09T20:58:23.920Z,47.50
2019-05-09T21:00:50.349Z,47.50
2019-05-09T21:03:16.773Z,53.17
2019-05-09T21:05:43.118Z,50.23
2019-05-09T21:08:09.511Z,50.73
2019-05-09T21:10:35.967Z,46.83
2019-05-09T21:13:02.867Z,43.53
2019-05-09T21:15:30.373Z,46.07
2019-05-09T21:17:56.822Z,40.47
2019-05-09T21:20:23.662Z,38.73
2019-05-09T21:22:50.066Z,42.50
2019-05-09T21:25:16.636Z,44.10
2019-05-09T21:27:43.095Z,42.87
2019-05-09T21:30:09.808Z,38.30
2019-05-09T21:32:36.173Z,39.67
2019-05-09T21:35:04.446Z,42.20
2019-05-09T21:37:30.800Z,41.30
2019-05-09T21:39:57.279Z,47.13
2019-05-09T21:42:23.674Z,42.70
2019-05-09T21:44:50.214Z,41.37
2019-05-09T21:47:16.618Z,41.57
2019-05-09T21:49:43.054Z,45.37
2019-05-09T21:52:10.603Z,48.43
2019-05-09T21:54:37.156Z,46.10
2019-05-09T21:57:03.580Z,46.47
2019-05-09T21:59:29.968Z,47.87
2019-05-09T22:01:56.480Z,44.37
2019-05-09T22:04:22.951Z,46.17
2019-05-09T22:06:49.341Z,46.73
2019-05-09T22:09:15.725Z,49.93
2019-05-09T22:11:42.189Z,46.13
2019-05-09T22:14:08.565Z,47.73
2019-05-09T22:16:34.986Z,47.00
2019-05-09T22:19:01.437Z,44.80
2019-05-09T22:21:27.777Z,45.77
2019-05-09T22:23:56.776Z,50.27
2019-05-09T22:26:22.324Z,43.80
2019-05-09T22:28:48.732Z,48.87
2019-05-09T22:31:15.069Z,55.93
2019-05-09T22:33:41.470Z,46.07
2019-05-09T22:36:07.809Z,45.53
2019-05-09T22:38:35.295Z,48.67
2019-05-09T22:41:01.709Z,46.47
2019-05-09T22:43:28.106Z,49.03
2019-05-09T22:45:54.458Z,50.30
2019-05-09T22:48:20.918Z,46.80
2019-05-09T22:50:47.358Z,50.90
2019-05-09T22:53:14.896Z,48.40
2019-05-09T22:55:41.282Z,52.20
2019-05-09T22:58:07.750Z,49.27
2019-05-09T23:00:34.112Z,52.50
2019-05-09T23:03:00.465Z,57.17
2019-05-09T23:05:26.855Z,58.40
2019-05-09T23:07:53.192Z,58.20
2019-05-09T23:10:19.571Z,50.30
2019-05-09T23:12:45.989Z,57.13
2019-05-09T23:15:14.357Z,49.13
2019-05-09T23:17:40.744Z,51.23
2019-05-09T23:20:09.433Z,50.33
2019-05-09T23:22:35.831Z,60.17
2019-05-09T23:25:04.263Z,62.13
2019-05-09T23:27:31.670Z,64.57
2019-05-09T23:29:58.022Z,62.73
2019-05-09T23:32:35.083Z,62.00
2019-05-09T23:35:01.438Z,58.50
2019-05-09T23:37:28.944Z,67.90
2019-05-09T23:39:56.686Z,59.87
2019-05-09T23:42:23.230Z,64.83
2019-05-09T23:44:49.638Z,66.23
2019-05-09T23:47:16.023Z,65.30
2019-05-09T23:49:42.462Z,60.33
2019-05-09T23:52:08.851Z,51.43
2019-05-09T23:54:53.937Z,58.40
2019-05-09T23:57:38.561Z,54.00
